Aérodrome :
LOGIN :

S'inscrire | Disclaimer

   EN    FR    IT 

 










Légende :    VFR   VFR Marginal   IFR   IFR Intensif   IFR Très Intensif
Visi : 
Plafond : 
>= 8 km
>= 3000ft
5 à 8 km
1000 à 3000 ft
1500m à 5 km
500 à 1000 ft
800 à 1500m
200 à 500 ft
< 800m
< 200 ft
Symboles :   Orages  Brouillard  Fortes neiges  Fortes précipitations  Vent > 20 kt
SIGMETs :   Divers  Orages  Givrage  Turbulence  Onde Orograph.  Cendres Volcan.







- Altitude de l'aérodrome : 274 ft
- Code IATA : PUY


LDPL - Pula

DERNIER METAR :
  • 220630Z 07024KT 9999 -RA FEW018 SCT024 BKN030 04/00 Q1004 TEMPO 07030G40KT

METARs EXPIRÉS :
  • 220600Z 06017KT 9999 -RA FEW018 SCT024 BKN030 03/01 Q1004 TEMPO 07030G40KT
  • 220530Z 05017KT 9999 -RA FEW018 SCT024 BKN030 03/00 Q1003 TEMPO 07030G45KT

TAF TAF LDPL
Valide du 22 à 06h jusqu'au 23 à 06h UTC


220525Z 2206/2306 07020G30KT 9999 -RA SCT010 OVC030 TX06/2212Z TN03/2207Z
TEMPO 2206/2212 07030G40KT
PROB40
TEMPO 2222/2306 07030G40KT
Pas de NOTAMs connus pour ce terrain.
1 SIGMET publié pour la FIR Zagreb (LDZO) :
 
Turbulence forte
LDZO SIGMET 4 VALID 220600/221000 LDZA
LDZO ZAGREB FIR SEV TURB FCST WI N4535 E01431 - N4355 E01626 - N4358 E01343 - N4532 E01259 - N4535 E01431 SFC/6000FT STNR NC=



MET'MAP, la Météo Aéronautique d'un coup d'oeil ! - Copyright ORBIFLY Décembre 2007 - Disclaimer

ORBIFLY MET'MAP TEAM :

Programmation & Développement : Alexandra Zaïnal
Conception & Développement : Baudouin d'Aumeries
Co-Programmation & Développement : Marc-Olivier Méhu
Soutien technique & logistique : Manuel Goepfert

Contact : metmap@orbifly.com




SOURCES & CREDITS :

   NOAA